createdAt,value
2023-01-13T00:01:27.087Z,99595.38
2023-01-13T00:03:53.835Z,99544.19
2023-01-13T00:06:23.498Z,99600.00
2023-01-13T00:08:54.607Z,99625.28
2023-01-13T00:11:21.735Z,99601.31
2023-01-13T00:13:48.244Z,99595.81
2023-01-13T00:16:18.237Z,99593.72
2023-01-13T00:18:45.760Z,99561.66
2023-01-13T00:21:17.667Z,99618.56
2023-01-13T00:23:45.660Z,99618.75
2023-01-13T00:26:21.058Z,99601.97
2023-01-13T00:28:47.913Z,99570.13
2023-01-13T00:31:19.718Z,99601.97
2023-01-13T00:33:47.554Z,99615.53
2023-01-13T00:36:17.183Z,99625.63
2023-01-13T00:38:47.105Z,99632.34
2023-01-13T00:41:16.668Z,99650.91
2023-01-13T00:43:47.478Z,99642.75
2023-01-13T00:46:19.330Z,99653.09
2023-01-13T00:48:46.781Z,99663.78
2023-01-13T00:51:20.950Z,99643.63
2023-01-13T00:53:50.300Z,99651.34
2023-01-13T00:56:38.528Z,99663.63
2023-01-13T00:59:06.049Z,99651.41
2023-01-13T01:01:33.162Z,99639.28
2023-01-13T01:03:59.741Z,99602.16
2023-01-13T01:06:27.609Z,99620.94
2023-01-13T01:08:55.514Z,99624.13
2023-01-13T01:11:28.641Z,99607.75
2023-01-13T01:13:57.781Z,99615.84
2023-01-13T01:16:26.501Z,99612.78
2023-01-13T01:18:53.725Z,99553.13
2023-01-13T01:21:21.313Z,99582.16
2023-01-13T01:23:48.296Z,99541.44
2023-01-13T01:26:20.197Z,99538.56
2023-01-13T01:28:47.091Z,99530.91
2023-01-13T01:31:19.676Z,99506.97
2023-01-13T01:33:46.836Z,99506.00
2023-01-13T01:36:17.929Z,99487.66
2023-01-13T01:38:48.860Z,99503.41
2023-01-13T01:41:19.238Z,99475.91
2023-01-13T01:43:52.718Z,99475.84
2023-01-13T01:46:19.340Z,99540.38
2023-01-13T01:48:46.432Z,99533.38
2023-01-13T01:51:16.352Z,99561.66
2023-01-13T01:53:46.271Z,99514.16
2023-01-13T01:56:15.777Z,99542.41
2023-01-13T01:58:49.571Z,99503.63
2023-01-13T02:01:16.232Z,99538.19
2023-01-13T02:03:57.511Z,99512.78
2023-01-13T02:06:25.038Z,99527.09
2023-01-13T02:08:52.070Z,99548.50
2023-01-13T02:11:29.859Z,99548.75
2023-01-13T02:13:56.415Z,99544.63
2023-01-13T02:16:24.084Z,99537.69
2023-01-13T02:19:02.401Z,99489.78
2023-01-13T02:22:16.629Z,99557.69
2023-01-13T02:25:29.301Z,99540.09
2023-01-13T02:28:14.508Z,99522.25
2023-01-13T02:31:06.821Z,99526.94
2023-01-13T02:33:46.940Z,99432.56
2023-01-13T02:36:22.488Z,99510.47
2023-01-13T02:38:55.230Z,99518.28
2023-01-13T02:41:31.495Z,99498.56
2023-01-13T02:44:02.364Z,99519.16
2023-01-13T02:46:37.797Z,99514.97
2023-01-13T02:49:09.662Z,99509.03
2023-01-13T02:51:38.553Z,99381.13
2023-01-13T02:54:12.470Z,99491.94
2023-01-13T02:56:44.497Z,99475.22
2023-01-13T02:59:12.387Z,99458.47
2023-01-13T03:01:39.219Z,99479.22
2023-01-13T03:04:35.268Z,99472.41
2023-01-13T03:07:31.771Z,99515.59
2023-01-13T03:10:11.321Z,99445.56
2023-01-13T03:12:55.015Z,99438.88
2023-01-13T03:15:53.355Z,99455.63
2023-01-13T03:18:28.755Z,99389.66
2023-01-13T03:21:13.223Z,99411.09
2023-01-13T03:23:55.075Z,99473.91
2023-01-13T03:26:30.410Z,99480.25
2023-01-13T03:29:15.075Z,99441.94
2023-01-13T03:31:51.292Z,99478.81
2023-01-13T03:34:22.324Z,99488.72
2023-01-13T03:36:53.048Z,99377.97
2023-01-13T03:39:27.713Z,99473.91
2023-01-13T03:42:04.456Z,99495.69
2023-01-13T03:44:56.937Z,99483.34
2023-01-13T03:47:29.121Z,99494.53
2023-01-13T03:50:10.623Z,99543.25
2023-01-13T03:52:51.970Z,99543.59
2023-01-13T03:55:26.207Z,99544.41
2023-01-13T03:58:14.776Z,99568.19
2023-01-13T04:00:58.197Z,99570.47
2023-01-13T04:03:33.436Z,99592.00
2023-01-13T04:06:16.045Z,99604.44
2023-01-13T04:09:03.039Z,99570.91
2023-01-13T04:11:35.274Z,99582.88
2023-01-13T04:14:03.822Z,99552.25
2023-01-13T04:16:32.542Z,99545.41
2023-01-13T04:18:59.040Z,99548.28
2023-01-13T04:21:26.378Z,99531.41
2023-01-13T04:23:52.842Z,99513.50
2023-01-13T04:26:19.354Z,99536.50
2023-01-13T04:28:46.535Z,99504.97
2023-01-13T04:31:13.062Z,99526.53
2023-01-13T04:33:39.693Z,99510.66
2023-01-13T04:36:06.593Z,99502.31
2023-01-13T04:38:33.044Z,99503.47
2023-01-13T04:40:59.529Z,99508.19
2023-01-13T04:43:25.979Z,99450.53
2023-01-13T04:45:52.493Z,99500.53
2023-01-13T04:48:19.023Z,99471.97
2023-01-13T04:50:45.562Z,99518.06
2023-01-13T04:53:12.204Z,99509.19
2023-01-13T04:55:38.734Z,99523.34
2023-01-13T04:58:07.156Z,99525.66
2023-01-13T05:00:34.271Z,99530.97
2023-01-13T05:03:00.742Z,99524.81
2023-01-13T05:05:28.696Z,99540.13
2023-01-13T05:07:55.253Z,99512.56
2023-01-13T05:10:23.876Z,99527.66
2023-01-13T05:12:50.521Z,99549.00
2023-01-13T05:15:17.093Z,99504.22
2023-01-13T05:17:44.005Z,99546.13
2023-01-13T05:20:11.759Z,99486.88
2023-01-13T05:22:38.269Z,99561.38
2023-01-13T05:25:05.203Z,99573.06
2023-01-13T05:27:32.624Z,99566.59
2023-01-13T05:29:59.260Z,99559.00
2023-01-13T05:32:26.304Z,99541.81
2023-01-13T05:34:52.812Z,99571.59
2023-01-13T05:37:19.492Z,99566.94
2023-01-13T05:39:46.250Z,99579.25
2023-01-13T05:42:12.747Z,99557.84
2023-01-13T05:44:39.183Z,99577.50
2023-01-13T05:47:05.653Z,99589.34
2023-01-13T05:49:32.208Z,99568.91
2023-01-13T05:52:01.057Z,99589.03
2023-01-13T05:54:27.554Z,99614.03
2023-01-13T05:56:56.852Z,99591.09
2023-01-13T05:59:23.302Z,99589.34
2023-01-13T06:01:49.814Z,99603.00
2023-01-13T06:04:16.309Z,99597.50
2023-01-13T06:06:42.791Z,99601.91
2023-01-13T06:09:09.283Z,99614.88
2023-01-13T06:11:35.767Z,99556.91
2023-01-13T06:14:02.187Z,99561.41
2023-01-13T06:16:28.629Z,99635.00
2023-01-13T06:18:55.109Z,99628.72
2023-01-13T06:21:21.701Z,99568.88
2023-01-13T06:23:48.227Z,99648.81
2023-01-13T06:26:20.045Z,99655.59
2023-01-13T06:28:46.638Z,99667.00
2023-01-13T06:31:14.199Z,99682.91
2023-01-13T06:33:50.676Z,99678.31
2023-01-13T06:36:22.745Z,99645.91
2023-01-13T06:38:53.590Z,99702.69
2023-01-13T06:41:21.024Z,99728.66
2023-01-13T06:43:47.482Z,99717.13
2023-01-13T06:46:13.998Z,99704.28
2023-01-13T06:48:40.557Z,99658.44
2023-01-13T06:51:07.101Z,99723.69
2023-01-13T06:53:33.607Z,99732.50
2023-01-13T06:56:00.105Z,99651.94
2023-01-13T06:58:26.605Z,99735.28
2023-01-13T07:00:53.117Z,99722.00
2023-01-13T07:03:19.802Z,99661.69
2023-01-13T07:05:53.092Z,99747.88
2023-01-13T07:08:19.570Z,99720.41
2023-01-13T07:10:46.083Z,99718.69
2023-01-13T07:13:12.586Z,99748.31
2023-01-13T07:15:39.065Z,99743.59
2023-01-13T07:18:05.542Z,99695.41
2023-01-13T07:20:32.038Z,99751.56
2023-01-13T07:22:58.660Z,99718.72
2023-01-13T07:25:25.148Z,99741.22
2023-01-13T07:27:51.571Z,99750.75
2023-01-13T07:30:18.370Z,99750.22
2023-01-13T07:32:44.891Z,99759.97
2023-01-13T07:35:11.384Z,99733.66
2023-01-13T07:37:38.376Z,99769.13
2023-01-13T07:40:05.873Z,99785.38
2023-01-13T07:42:32.325Z,99778.38
2023-01-13T07:44:58.918Z,99802.88
2023-01-13T07:47:25.475Z,99720.50
2023-01-13T07:49:52.000Z,99770.69
2023-01-13T07:52:18.411Z,99771.09
2023-01-13T07:54:44.843Z,99769.28
2023-01-13T07:57:11.302Z,99767.25
2023-01-13T07:59:37.829Z,99757.38
2023-01-13T08:02:04.457Z,99758.75
2023-01-13T08:04:31.032Z,99776.47
2023-01-13T08:06:57.481Z,99775.91
2023-01-13T08:09:23.947Z,99790.66
2023-01-13T08:11:54.268Z,99797.25
2023-01-13T08:14:20.806Z,99800.28
2023-01-13T08:16:47.391Z,99813.56
2023-01-13T08:19:13.987Z,99823.72
2023-01-13T08:21:40.429Z,99832.13
2023-01-13T08:24:08.750Z,99802.38
2023-01-13T08:26:35.333Z,99815.94
2023-01-13T08:29:01.792Z,99814.88
2023-01-13T08:31:28.284Z,99755.19
2023-01-13T08:33:54.773Z,99841.66
2023-01-13T08:36:21.193Z,99838.25
2023-01-13T08:38:47.732Z,99858.72
2023-01-13T08:41:16.894Z,99855.91
2023-01-13T08:43:43.649Z,99865.16
2023-01-13T08:46:10.259Z,99827.81
2023-01-13T08:48:37.001Z,99881.47
2023-01-13T08:51:06.517Z,99872.88
2023-01-13T08:53:33.205Z,99806.13
2023-01-13T08:55:59.721Z,99815.09
2023-01-13T08:58:26.624Z,99891.41
2023-01-13T09:00:53.193Z,99896.78
2023-01-13T09:03:19.718Z,99879.81
2023-01-13T09:05:46.452Z,99879.16
2023-01-13T09:08:13.081Z,99868.59
2023-01-13T09:10:39.634Z,99880.75
2023-01-13T09:13:06.143Z,99919.53
2023-01-13T09:15:32.665Z,99913.53
2023-01-13T09:17:59.338Z,99900.59
2023-01-13T09:20:25.883Z,99833.03
2023-01-13T09:22:52.406Z,99893.81
2023-01-13T09:25:19.002Z,99921.72
2023-01-13T09:27:45.564Z,99831.41
2023-01-13T09:30:12.431Z,99920.28
2023-01-13T09:32:38.995Z,99890.97
2023-01-13T09:35:07.147Z,99928.25
2023-01-13T09:37:40.614Z,99939.75
2023-01-13T09:40:18.271Z,99972.56
2023-01-13T09:42:47.302Z,99948.84
2023-01-13T09:45:34.158Z,99901.56
2023-01-13T09:48:09.399Z,99951.25
2023-01-13T09:50:38.849Z,99953.84
2023-01-13T09:53:14.486Z,99947.06
2023-01-13T09:55:41.050Z,99926.88
2023-01-13T09:58:18.367Z,99918.09
2023-01-13T10:00:57.076Z,99893.53
2023-01-13T10:03:27.185Z,99795.81
2023-01-13T10:05:55.867Z,99857.59
2023-01-13T10:08:29.880Z,99855.19
2023-01-13T10:10:59.724Z,99842.81
2023-01-13T10:13:31.250Z,99850.41
2023-01-13T10:16:12.758Z,99815.91
2023-01-13T10:18:53.466Z,99820.06
2023-01-13T10:21:32.139Z,99818.72
2023-01-13T10:24:20.675Z,99833.22
2023-01-13T10:27:07.981Z,99795.63
2023-01-13T10:29:36.390Z,99829.88
2023-01-13T10:32:02.977Z,99850.16
2023-01-13T10:34:29.968Z,99790.78
2023-01-13T10:36:58.379Z,99859.53
2023-01-13T10:39:25.363Z,99830.63
2023-01-13T10:42:02.237Z,99844.69
2023-01-13T10:44:28.874Z,99816.75
2023-01-13T10:46:58.000Z,99790.06
2023-01-13T10:49:32.626Z,99866.91
2023-01-13T10:52:00.473Z,99837.31
2023-01-13T10:54:27.091Z,99900.69
2023-01-13T10:57:12.306Z,99916.06
2023-01-13T10:59:38.882Z,99919.47
2023-01-13T11:02:24.218Z,99928.47
2023-01-13T11:04:57.833Z,99944.81
2023-01-13T11:07:36.606Z,99945.47
2023-01-13T11:10:06.435Z,99967.34
2023-01-13T11:12:39.354Z,99986.34
2023-01-13T11:15:13.766Z,99999.72
2023-01-13T11:17:45.991Z,100008.53
2023-01-13T11:20:17.153Z,100011.88
2023-01-13T11:22:49.675Z,100024.69
2023-01-13T11:25:41.257Z,100058.72
2023-01-13T11:28:25.383Z,99987.03
2023-01-13T11:31:14.218Z,100075.66
2023-01-13T11:34:18.991Z,99990.25
2023-01-13T11:36:52.163Z,100066.59
2023-01-13T11:39:26.243Z,100080.38
2023-01-13T11:42:03.253Z,100071.59
2023-01-13T11:44:40.531Z,100084.38
2023-01-13T11:47:11.816Z,100077.00
2023-01-13T11:49:38.326Z,100092.19
2023-01-13T11:52:23.302Z,100107.19
2023-01-13T11:55:03.306Z,100087.44
2023-01-13T11:58:05.571Z,100113.00
2023-01-13T12:00:50.712Z,100115.81
2023-01-13T12:03:26.739Z,100056.16
2023-01-13T12:06:08.262Z,100131.44
2023-01-13T12:08:49.675Z,100136.84
2023-01-13T12:11:25.471Z,100139.22
2023-01-13T12:14:19.738Z,100139.47
2023-01-13T12:16:49.163Z,100129.06
2023-01-13T12:19:25.107Z,100137.47
2023-01-13T12:22:13.229Z,100159.25
2023-01-13T12:24:49.400Z,100136.47
2023-01-13T12:27:45.845Z,100174.84
2023-01-13T12:30:36.180Z,100163.84
2023-01-13T12:33:41.287Z,100182.84
2023-01-13T12:36:35.801Z,100190.66
2023-01-13T12:39:37.308Z,100208.66
2023-01-13T12:42:28.459Z,100180.66
2023-01-13T12:45:10.171Z,100213.06
2023-01-13T12:47:38.608Z,100211.88
2023-01-13T12:50:23.327Z,100212.25
2023-01-13T12:52:51.781Z,100169.09
2023-01-13T12:55:25.552Z,100217.28
2023-01-13T12:58:05.904Z,100237.28
2023-01-13T13:00:41.180Z,100247.72
2023-01-13T13:03:07.653Z,100271.47
2023-01-13T13:06:00.249Z,100235.47
2023-01-13T13:08:38.873Z,100261.50
2023-01-13T13:11:08.249Z,100268.09
2023-01-13T13:13:48.050Z,100272.69
2023-01-13T13:16:26.828Z,100256.69
2023-01-13T13:19:13.576Z,100270.50
2023-01-13T13:22:09.098Z,100290.91
2023-01-13T13:24:35.929Z,100306.50
2023-01-13T13:27:24.024Z,100299.50
2023-01-13T13:29:59.245Z,100323.53
2023-01-13T13:32:47.535Z,100334.91
2023-01-13T13:35:31.369Z,100341.31
2023-01-13T13:38:18.968Z,100343.31
2023-01-13T13:40:47.570Z,100342.94
2023-01-13T13:43:15.761Z,100362.53
2023-01-13T13:45:52.405Z,100360.75
2023-01-13T13:48:28.005Z,100383.53
2023-01-13T13:50:57.491Z,100367.75
2023-01-13T13:53:27.406Z,100377.13
2023-01-13T13:55:59.417Z,100392.75
2023-01-13T13:58:27.611Z,100337.31
2023-01-13T14:00:54.878Z,100394.56
2023-01-13T14:03:24.969Z,100374.94
2023-01-13T14:05:57.397Z,100405.75
2023-01-13T14:08:24.907Z,100374.94
2023-01-13T14:10:51.547Z,100385.34
2023-01-13T14:13:24.076Z,100398.16
2023-01-13T14:15:57.179Z,100335.91
2023-01-13T14:18:24.697Z,100422.97
2023-01-13T14:21:04.675Z,100426.38
2023-01-13T14:23:33.525Z,100237.38
2023-01-13T14:26:08.488Z,100445.78
2023-01-13T14:28:38.144Z,100445.56
2023-01-13T14:31:05.589Z,100445.78
2023-01-13T14:33:34.958Z,100457.78
2023-01-13T14:36:22.772Z,100476.22
2023-01-13T14:39:02.672Z,100443.19
2023-01-13T14:41:44.061Z,100463.41
2023-01-13T14:44:32.166Z,100464.00
2023-01-13T14:47:19.289Z,100399.31
2023-01-13T14:49:57.634Z,100433.16
2023-01-13T14:52:25.963Z,100469.41
2023-01-13T14:55:06.212Z,100488.81
2023-01-13T14:57:34.694Z,100493.41
2023-01-13T15:00:16.365Z,100504.28
2023-01-13T15:02:42.808Z,100499.84
2023-01-13T15:05:18.393Z,100504.28
2023-01-13T15:08:01.792Z,100500.09
2023-01-13T15:10:35.087Z,100489.06
2023-01-13T15:13:05.086Z,100465.03
2023-01-13T15:15:34.573Z,100494.88
2023-01-13T15:18:05.535Z,100495.47
2023-01-13T15:20:32.324Z,100480.06
2023-01-13T15:22:58.796Z,100504.50
2023-01-13T15:25:25.234Z,100498.69
2023-01-13T15:27:52.948Z,100517.09
2023-01-13T15:30:23.394Z,100439.31
2023-01-13T15:32:49.835Z,100505.44
2023-01-13T15:35:17.421Z,100524.50
2023-01-13T15:37:45.637Z,100530.09
2023-01-13T15:40:21.339Z,100485.00
2023-01-13T15:42:47.843Z,100458.13
2023-01-13T15:45:14.443Z,100548.31
2023-01-13T15:47:41.422Z,100476.97
2023-01-13T15:50:14.749Z,100559.53
2023-01-13T15:52:41.693Z,100559.13
2023-01-13T15:55:08.538Z,100559.31
2023-01-13T15:57:38.367Z,100560.13
2023-01-13T16:00:14.850Z,100554.72
2023-01-13T16:02:42.043Z,100520.38
2023-01-13T16:05:08.544Z,100579.13
2023-01-13T16:07:35.047Z,100587.16
2023-01-13T16:10:02.301Z,100599.94
2023-01-13T16:12:28.982Z,100585.06
2023-01-13T16:14:55.502Z,100614.16
2023-01-13T16:17:24.107Z,100619.56
2023-01-13T16:19:51.594Z,100600.09
2023-01-13T16:22:18.661Z,100550.13
2023-01-13T16:24:45.218Z,100614.09
2023-01-13T16:27:14.729Z,100638.31
2023-01-13T16:29:41.871Z,100634.31
2023-01-13T16:32:08.332Z,100648.53
2023-01-13T16:34:35.050Z,100670.56
2023-01-13T16:37:01.560Z,100671.47
2023-01-13T16:39:28.272Z,100665.38
2023-01-13T16:41:54.722Z,100636.56
2023-01-13T16:44:21.149Z,100698.41
2023-01-13T16:46:47.695Z,100681.63
2023-01-13T16:49:15.881Z,100683.63
2023-01-13T16:51:42.835Z,100669.84
2023-01-13T16:54:09.317Z,100677.22
2023-01-13T16:56:36.672Z,100662.78
2023-01-13T16:59:11.925Z,100660.56
2023-01-13T17:01:40.755Z,100686.06
2023-01-13T17:04:07.592Z,100683.59
2023-01-13T17:06:41.808Z,100638.38
2023-01-13T17:09:16.007Z,100696.81
2023-01-13T17:11:42.784Z,100684.66
2023-01-13T17:14:18.512Z,100701.03
2023-01-13T17:16:46.519Z,100691.88
2023-01-13T17:19:14.008Z,100684.66
2023-01-13T17:21:40.655Z,100692.22
2023-01-13T17:24:07.350Z,100642.44
2023-01-13T17:26:39.554Z,100687.78
2023-01-13T17:29:10.001Z,100698.25
2023-01-13T17:31:36.647Z,100670.97
2023-01-13T17:34:04.690Z,100620.34
2023-01-13T17:36:31.695Z,100710.97
2023-01-13T17:38:58.391Z,100683.81
2023-01-13T17:41:26.124Z,100703.50
2023-01-13T17:43:53.481Z,100635.13
2023-01-13T17:46:20.632Z,100693.59
2023-01-13T17:48:47.207Z,100653.66
2023-01-13T17:51:15.885Z,100717.72
2023-01-13T17:53:43.176Z,100717.28
2023-01-13T17:56:13.982Z,100711.72
2023-01-13T17:58:41.294Z,100666.38
2023-01-13T18:01:13.790Z,100723.41
2023-01-13T18:03:40.314Z,100726.81
2023-01-13T18:06:21.248Z,100743.09
2023-01-13T18:08:48.904Z,100750.28
2023-01-13T18:11:17.067Z,100773.06
2023-01-13T18:13:43.535Z,100763.44
2023-01-13T18:16:12.775Z,100807.56
2023-01-13T18:18:41.733Z,100819.41
2023-01-13T18:21:18.197Z,100816.91
2023-01-13T18:23:44.749Z,100795.00
2023-01-13T18:26:19.785Z,100803.28
2023-01-13T18:28:46.232Z,100682.66
2023-01-13T18:31:12.669Z,100757.44
2023-01-13T18:33:39.226Z,100749.53
2023-01-13T18:36:07.360Z,100702.31
2023-01-13T18:38:33.966Z,100750.50
2023-01-13T18:41:00.428Z,100724.91
2023-01-13T18:43:26.909Z,100643.22
2023-01-13T18:45:53.373Z,100712.97
2023-01-13T18:48:19.900Z,100701.66
2023-01-13T18:50:46.329Z,100691.31
2023-01-13T18:53:12.806Z,100686.88
2023-01-13T18:55:39.349Z,100641.59
2023-01-13T18:58:05.849Z,100680.00
2023-01-13T19:00:32.307Z,100665.53
2023-01-13T19:05:32.965Z,100673.81
2023-01-13T19:07:59.390Z,100597.75
2023-01-13T19:10:25.831Z,100651.50
2023-01-13T19:12:52.312Z,100586.66
2023-01-13T19:15:18.767Z,100562.28
2023-01-13T19:17:45.196Z,100608.38
2023-01-13T19:20:12.153Z,100616.59
2023-01-13T19:22:38.983Z,100556.56
2023-01-13T19:25:05.842Z,100631.19
2023-01-13T19:27:32.390Z,100629.31
2023-01-13T19:29:59.029Z,100653.00
2023-01-13T19:32:26.458Z,100665.16
2023-01-13T19:34:53.188Z,100655.13
2023-01-13T19:37:19.908Z,100663.38
2023-01-13T19:39:46.569Z,100617.66
2023-01-13T19:42:13.848Z,100691.75
2023-01-13T19:44:40.518Z,100641.69
2023-01-13T19:47:07.037Z,100712.38
2023-01-13T19:49:33.693Z,100660.56
2023-01-13T19:52:00.109Z,100712.16
2023-01-13T19:54:26.721Z,100664.28
2023-01-13T19:56:53.230Z,100734.19
2023-01-13T19:59:19.668Z,100665.03
2023-01-13T20:01:46.172Z,100729.03
2023-01-13T20:04:12.652Z,100715.69
2023-01-13T20:06:39.425Z,100728.38
2023-01-13T20:09:06.105Z,100745.19
2023-01-13T20:11:32.635Z,100719.94
2023-01-13T20:14:01.298Z,100738.00
2023-01-13T20:16:29.539Z,100729.47
2023-01-13T20:18:56.668Z,100731.19
2023-01-13T20:21:23.256Z,100734.84
2023-01-13T20:23:51.666Z,100705.84
2023-01-13T20:26:19.066Z,100702.75
2023-01-13T20:28:46.872Z,100764.88
2023-01-13T20:31:14.483Z,100712.09
2023-01-13T20:33:41.378Z,100774.50
2023-01-13T20:36:08.855Z,100799.06
2023-01-13T20:38:35.317Z,100807.31
2023-01-13T20:41:02.131Z,100804.28
2023-01-13T20:43:28.555Z,100794.34
2023-01-13T20:45:55.028Z,100802.34
2023-01-13T20:48:21.484Z,100791.88
2023-01-13T20:50:52.963Z,100802.22
2023-01-13T20:53:19.433Z,100808.22
2023-01-13T20:55:45.946Z,100811.75
2023-01-13T20:58:12.409Z,100797.25
2023-01-13T21:00:38.924Z,100828.94
2023-01-13T21:03:05.444Z,100798.00
2023-01-13T21:05:31.922Z,100840.31
2023-01-13T21:07:58.403Z,100861.03
2023-01-13T21:10:24.892Z,100838.88
2023-01-13T21:12:51.338Z,100855.19
2023-01-13T21:15:17.836Z,100867.75
2023-01-13T21:17:44.952Z,100828.00
2023-01-13T21:20:13.383Z,100836.41
2023-01-13T21:22:43.611Z,100871.75
2023-01-13T21:25:10.244Z,100792.47
2023-01-13T21:27:36.654Z,100889.59
2023-01-13T21:30:03.510Z,100878.59
2023-01-13T21:32:30.144Z,100881.97
2023-01-13T21:34:56.617Z,100884.84
2023-01-13T21:37:23.072Z,100870.25
2023-01-13T21:39:49.547Z,100870.97
2023-01-13T21:42:17.374Z,100887.78
2023-01-13T21:44:43.846Z,100900.25
2023-01-13T21:47:18.384Z,100894.31
2023-01-13T21:49:44.935Z,100893.78
2023-01-13T21:52:12.327Z,100847.78
2023-01-13T21:54:39.327Z,100865.69
2023-01-13T21:57:06.165Z,100859.53
2023-01-13T21:59:32.656Z,100923.09
2023-01-13T22:02:22.872Z,100845.91
2023-01-13T22:04:45.583Z,100903.56
2023-01-13T22:07:12.051Z,100892.13
2023-01-13T22:09:38.547Z,100882.53
2023-01-13T22:12:05.337Z,100910.63
2023-01-13T22:14:32.141Z,100912.91
2023-01-13T22:16:58.565Z,100903.94
2023-01-13T22:19:25.230Z,100835.16
2023-01-13T22:21:51.893Z,100908.03
2023-01-13T22:24:18.395Z,100835.53
2023-01-13T22:26:44.833Z,100891.47
2023-01-13T22:29:11.418Z,100872.03
2023-01-13T22:31:37.923Z,100882.50
2023-01-13T22:34:04.347Z,100870.31
2023-01-13T22:36:30.791Z,100920.72
2023-01-13T22:38:57.282Z,100928.53
2023-01-13T22:41:23.907Z,100935.25
2023-01-13T22:43:50.365Z,100951.28
2023-01-13T22:46:17.345Z,100933.38
2023-01-13T22:48:44.879Z,100963.97
2023-01-13T22:51:16.403Z,100940.59
2023-01-13T22:53:44.368Z,100952.69
2023-01-13T22:56:17.755Z,100956.09
2023-01-13T22:58:44.907Z,100883.22
2023-01-13T23:01:13.799Z,100948.38
2023-01-13T23:03:40.925Z,100944.00
2023-01-13T23:06:07.954Z,100940.78
2023-01-13T23:08:34.780Z,100916.94
2023-01-13T23:11:02.896Z,100913.38
2023-01-13T23:13:29.766Z,100935.84
2023-01-13T23:15:56.787Z,100937.53
2023-01-13T23:18:25.214Z,100964.66
2023-01-13T23:20:51.719Z,100965.47
2023-01-13T23:23:18.240Z,100969.03
2023-01-13T23:25:52.104Z,100931.97
2023-01-13T23:28:18.580Z,100953.09
2023-01-13T23:30:45.150Z,100967.56
2023-01-13T23:33:11.615Z,100893.97
2023-01-13T23:35:38.105Z,100904.19
2023-01-13T23:38:04.852Z,100961.06
2023-01-13T23:40:34.116Z,101001.44
2023-01-13T23:43:00.928Z,100967.09
2023-01-13T23:45:27.448Z,100969.69
2023-01-13T23:47:53.961Z,100976.19
2023-01-13T23:50:20.521Z,100964.53
2023-01-13T23:52:47.039Z,100957.41
2023-01-13T23:55:13.565Z,100959.84
2023-01-13T23:57:40.049Z,100947.47
